Time;durP1;ratioP1;P1;durP2;ratioP2;P2;SDS_P1;SDS_P2;PMS_P1;PMS_P2;Temp;Humidity;BMP_temperature;BMP_pressure;BME280_temperature;BME280_humidity;BME280_pressure;Samples;Min_cycle;Max_cycle;Signal;HPM_P1;HPM_P2
2024/02/28 00:01:56;;;;;;;11.68;9.57;;;7.90;99.90;;;;;;5078828;28;20197;-46
2024/02/28 00:04:26;;;;;;;11.82;9.52;;;7.90;99.90;;;;;;5076959;28;20218;-46
2024/02/28 00:06:56;;;;;;;10.95;8.50;;;7.90;99.90;;;;;;5086303;28;20189;-46
2024/02/28 00:09:26;;;;;;;12.35;9.88;;;7.90;99.90;;;;;;5086588;28;20269;-46
2024/02/28 00:11:56;;;;;;;12.73;10.10;;;7.90;99.90;;;;;;5081197;28;20197;-47
2024/02/28 00:14:28;;;;;;;10.63;8.30;;;7.90;99.90;;;;;;5065653;28;20210;-46
2024/02/28 00:16:56;;;;;;;10.30;8.60;;;7.90;99.90;;;;;;5085616;28;20203;-46
2024/02/28 00:19:25;;;;;;;16.02;11.68;;;7.90;99.90;;;;;;5084329;28;20753;-48
2024/02/28 00:21:56;;;;;;;10.68;9.57;;;7.90;99.90;;;;;;5079312;28;20198;-47
2024/02/28 00:24:24;;;;;;;15.30;10.90;;;7.90;99.90;;;;;;5085766;28;20219;-48
2024/02/28 00:26:56;;;;;;;10.60;9.38;;;7.90;99.90;;;;;;5085336;28;20194;-44
2024/02/28 00:29:25;;;;;;;10.45;9.05;;;7.90;99.90;;;;;;5084128;28;20214;-48
2024/02/28 00:31:57;;;;;;;14.80;10.70;;;7.90;99.90;;;;;;5078422;28;20531;-46
2024/02/28 00:34:26;;;;;;;12.25;10.38;;;7.90;99.90;;;;;;5078229;28;20693;-47
2024/02/28 00:36:54;;;;;;;11.77;8.98;;;7.90;99.90;;;;;;5084120;28;20201;-48
2024/02/28 00:39:24;;;;;;;12.93;9.40;;;7.90;99.90;;;;;;5086004;28;20213;-47
2024/02/28 00:41:56;;;;;;;12.10;9.55;;;7.90;99.90;;;;;;5077980;28;20276;-45
2024/02/28 00:44:26;;;;;;;12.75;8.75;;;7.90;99.90;;;;;;5080488;28;20221;-45
2024/02/28 00:46:58;;;;;;;16.35;11.23;;;7.90;99.90;;;;;;5080511;28;20722;-44
2024/02/28 00:49:26;;;;;;;13.30;10.00;;;7.90;99.90;;;;;;5081009;28;20591;-48
2024/02/28 00:51:56;;;;;;;12.27;9.48;;;7.90;99.90;;;;;;5077336;28;20201;-44
2024/02/28 00:54:25;;;;;;;11.70;8.80;;;7.90;99.90;;;;;;5085560;28;20295;-45
2024/02/28 00:56:55;;;;;;;14.70;9.43;;;7.90;99.90;;;;;;5084717;28;20649;-45
2024/02/28 00:59:26;;;;;;;14.23;10.60;;;7.90;99.90;;;;;;5085353;28;20672;-45
2024/02/28 01:01:58;;;;;;;12.27;9.63;;;7.90;99.90;;;;;;5077659;28;20196;-45
2024/02/28 01:04:26;;;;;;;14.18;9.60;;;7.90;99.90;;;;;;5080892;28;20212;-45
2024/02/28 01:06:56;;;;;;;15.02;11.20;;;7.90;99.90;;;;;;5084892;28;20204;-45
2024/02/28 01:09:26;;;;;;;17.53;11.23;;;7.90;99.90;;;;;;5084844;28;20215;-45
2024/02/28 01:11:54;;;;;;;12.82;10.27;;;7.90;99.90;;;;;;5069907;28;20464;-46
2024/02/28 01:14:25;;;;;;;11.70;9.90;;;7.90;99.90;;;;;;5078324;28;20214;-48
2024/02/28 01:16:58;;;;;;;12.48;9.57;;;7.80;99.90;;;;;;5082687;28;20204;-45
2024/02/28 01:19:26;;;;;;;14.98;10.50;;;7.90;99.90;;;;;;5075058;28;20209;-46
2024/02/28 01:21:55;;;;;;;11.02;8.75;;;7.80;99.90;;;;;;5077695;28;20202;-45
2024/02/28 01:24:26;;;;;;;16.73;11.98;;;7.90;99.90;;;;;;5064799;28;20219;-45
2024/02/28 01:26:56;;;;;;;12.45;9.40;;;7.90;99.90;;;;;;5082738;28;20561;-45
2024/02/28 01:29:25;;;;;;;14.98;9.70;;;7.80;99.90;;;;;;5083281;28;20242;-45
2024/02/28 01:31:58;;;;;;;12.30;9.90;;;7.80;99.90;;;;;;5080574;28;20283;-45
2024/02/28 01:34:26;;;;;;;13.07;10.00;;;7.80;99.90;;;;;;5077507;28;20209;-45
2024/02/28 01:36:56;;;;;;;13.70;9.18;;;7.80;99.90;;;;;;5084049;28;20221;-45
2024/02/28 01:39:26;;;;;;;13.05;9.75;;;7.80;99.90;;;;;;5080779;28;20210;-45
2024/02/28 01:41:57;;;;;;;14.55;9.50;;;7.80;99.90;;;;;;5079483;28;20688;-45
2024/02/28 01:44:26;;;;;;;15.10;9.43;;;7.80;99.90;;;;;;5083909;28;20219;-45
2024/02/28 01:46:58;;;;;;;12.40;9.65;;;7.80;99.90;;;;;;5083886;28;20195;-45
2024/02/28 01:49:26;;;;;;;14.00;10.45;;;7.80;99.90;;;;;;5071890;28;20258;-47
2024/02/28 01:51:57;;;;;;;14.65;10.20;;;7.80;99.90;;;;;;5080533;28;20200;-46
2024/02/28 01:54:29;;;;;;;12.02;9.40;;;7.80;99.90;;;;;;5081821;28;20218;-46
2024/02/28 01:57:01;;;;;;;11.88;9.13;;;7.80;99.90;;;;;;5080391;28;20611;-47
2024/02/28 01:59:32;;;;;;;11.93;8.82;;;7.80;99.90;;;;;;5082836;28;20573;-45
2024/02/28 02:02:03;;;;;;;11.77;8.60;;;7.80;99.90;;;;;;5080529;28;20288;-45
2024/02/28 02:04:31;;;;;;;15.38;11.20;;;7.80;99.90;;;;;;5069688;28;20212;-44
2024/02/28 02:07:01;;;;;;;12.40;8.32;;;7.80;99.90;;;;;;5084361;28;20600;-45
2024/02/28 02:09:30;;;;;;;12.93;8.80;;;7.80;99.90;;;;;;5075802;28;20230;-46
2024/02/28 02:11:58;;;;;;;10.98;8.32;;;7.80;99.90;;;;;;5078640;28;20187;-46
2024/02/28 02:14:25;;;;;;;13.35;9.90;;;7.80;99.90;;;;;;5079692;28;20266;-47
2024/02/28 02:16:56;;;;;;;13.20;9.20;;;7.80;99.90;;;;;;5081564;28;20308;-47
2024/02/28 02:19:28;;;;;;;12.60;8.98;;;7.80;99.90;;;;;;5080227;28;20217;-47
2024/02/28 02:21:59;;;;;;;10.02;8.90;;;7.80;99.90;;;;;;5078589;28;20275;-48
2024/02/28 02:24:28;;;;;;;13.52;9.75;;;7.80;99.90;;;;;;5078902;28;20227;-47
2024/02/28 02:26:59;;;;;;;13.30;8.90;;;7.80;99.90;;;;;;5080855;28;20672;-46
2024/02/28 02:29:28;;;;;;;13.03;9.10;;;7.80;99.90;;;;;;5082230;28;20219;-45
2024/02/28 02:31:56;;;;;;;11.05;8.95;;;7.70;99.90;;;;;;5080550;28;20439;-45
2024/02/28 02:34:26;;;;;;;12.98;9.65;;;7.80;99.90;;;;;;5079252;28;20215;-44
2024/02/28 02:36:56;;;;;;;13.45;10.00;;;7.70;99.90;;;;;;5083372;28;20246;-47
2024/02/28 02:39:26;;;;;;;10.93;8.60;;;7.70;99.90;;;;;;5071944;28;20749;-44
2024/02/28 02:41:58;;;;;;;13.32;9.48;;;7.70;99.90;;;;;;5078541;28;20451;-45
2024/02/28 02:44:26;;;;;;;12.30;8.80;;;7.70;99.90;;;;;;5082590;28;20219;-50
2024/02/28 02:46:54;;;;;;;10.90;8.50;;;7.70;99.90;;;;;;5080561;28;20455;-45
2024/02/28 02:49:24;;;;;;;11.82;8.65;;;7.70;99.90;;;;;;5078587;28;20219;-45
2024/02/28 02:51:56;;;;;;;11.35;8.90;;;7.70;99.90;;;;;;5079973;28;20245;-44
2024/02/28 02:54:26;;;;;;;11.90;9.00;;;7.70;99.90;;;;;;5077356;28;20219;-45
2024/02/28 02:56:58;;;;;;;11.77;8.93;;;7.70;99.90;;;;;;5080961;28;20613;-45
2024/02/28 02:59:26;;;;;;;13.20;8.82;;;7.70;99.90;;;;;;5079719;28;20212;-45
2024/02/28 03:01:54;;;;;;;12.45;9.07;;;7.70;99.90;;;;;;5079650;28;20284;-45
2024/02/28 03:04:23;;;;;;;12.35;9.13;;;7.70;99.90;;;;;;5078909;28;20231;-45
2024/02/28 03:06:53;;;;;;;12.65;8.40;;;7.70;99.90;;;;;;5079999;28;20229;-47
2024/02/28 03:09:25;;;;;;;11.98;8.65;;;7.70;99.90;;;;;;5078374;28;20223;-45
2024/02/28 03:11:57;;;;;;;15.52;10.90;;;7.70;99.90;;;;;;5079843;28;20231;-47
2024/02/28 03:14:27;;;;;;;11.43;8.88;;;7.70;99.90;;;;;;5082757;28;20264;-45
2024/02/28 03:16:56;;;;;;;13.13;10.43;;;7.70;99.90;;;;;;5085956;28;20199;-46
2024/02/28 03:19:24;;;;;;;13.02;9.27;;;7.60;99.90;;;;;;5084739;28;20218;-45
2024/02/28 03:21:53;;;;;;;12.35;8.73;;;7.60;99.90;;;;;;5081924;28;20245;-47
2024/02/28 03:24:25;;;;;;;11.48;8.40;;;7.60;99.90;;;;;;5085846;28;20309;-45
2024/02/28 03:26:57;;;;;;;12.30;9.15;;;7.60;99.90;;;;;;5082628;28;20224;-45
2024/02/28 03:29:26;;;;;;;11.75;8.20;;;7.60;99.90;;;;;;5076204;28;20239;-45
2024/02/28 03:31:55;;;;;;;11.95;8.40;;;7.60;99.90;;;;;;5084017;28;20543;-45
2024/02/28 03:34:26;;;;;;;12.50;9.23;;;7.70;99.90;;;;;;5079194;28;20704;-49
2024/02/28 03:36:56;;;;;;;13.23;8.65;;;7.60;99.90;;;;;;5082479;28;20268;-46
2024/02/28 03:39:26;;;;;;;12.52;9.23;;;7.60;99.90;;;;;;5086200;28;20302;-46
2024/02/28 03:41:56;;;;;;;10.73;8.20;;;7.60;99.90;;;;;;5083247;28;20212;-45
2024/02/28 03:44:27;;;;;;;11.43;8.85;;;7.60;99.90;;;;;;5076918;28;20226;-46
2024/02/28 03:46:56;;;;;;;11.48;7.90;;;7.60;99.90;;;;;;5064106;28;20584;-46
2024/02/28 03:49:26;;;;;;;11.20;10.00;;;7.60;99.90;;;;;;5076367;28;20719;-45
2024/02/28 03:51:56;;;;;;;9.30;7.32;;;7.60;99.90;;;;;;5078691;28;20664;-46
2024/02/28 03:54:25;;;;;;;10.77;8.68;;;7.60;99.90;;;;;;5085455;28;20225;-45
2024/02/28 03:56:54;;;;;;;9.98;7.57;;;7.60;99.90;;;;;;5083756;28;20643;-45
2024/02/28 03:59:22;;;;;;;12.27;9.35;;;7.60;99.90;;;;;;5085819;28;20606;-47
2024/02/28 04:01:55;;;;;;;11.18;8.73;;;7.60;99.90;;;;;;5076278;28;20256;-45
2024/02/28 04:04:26;;;;;;;11.95;8.50;;;7.60;99.90;;;;;;5070509;28;20265;-46
2024/02/28 04:06:56;;;;;;;10.52;8.40;;;7.60;99.90;;;;;;5079029;28;20215;-45
2024/02/28 04:09:26;;;;;;;10.77;8.48;;;7.60;99.90;;;;;;5085539;28;20328;-45
2024/02/28 04:11:56;;;;;;;10.20;8.05;;;7.60;99.90;;;;;;5083293;28;20228;-47
2024/02/28 04:14:24;;;;;;;8.80;7.65;;;7.60;99.90;;;;;;5073147;28;20246;-47
2024/02/28 04:16:54;;;;;;;9.52;7.47;;;7.60;99.90;;;;;;5082608;28;20196;-45
2024/02/28 04:19:26;;;;;;;8.82;7.28;;;7.60;99.90;;;;;;5075653;28;20210;-45
2024/02/28 04:21:55;;;;;;;9.23;6.78;;;7.60;99.90;;;;;;5082018;28;20257;-45
2024/02/28 04:24:26;;;;;;;8.68;7.28;;;7.60;99.90;;;;;;5083180;28;20252;-44
2024/02/28 04:26:58;;;;;;;9.48;8.05;;;7.60;99.90;;;;;;5079188;28;20228;-45
2024/02/28 04:29:26;;;;;;;9.27;7.95;;;7.60;99.90;;;;;;5084568;28;20213;-45
2024/02/28 04:31:58;;;;;;;9.35;8.20;;;7.60;99.90;;;;;;5074670;28;20192;-45
2024/02/28 04:34:26;;;;;;;9.13;7.18;;;7.60;99.90;;;;;;5080238;28;20596;-44
2024/02/28 04:36:56;;;;;;;8.00;6.50;;;7.60;99.90;;;;;;5084376;28;20199;-44
2024/02/28 04:39:26;;;;;;;10.00;7.60;;;7.60;99.90;;;;;;5084493;28;20309;-45
2024/02/28 04:41:57;;;;;;;7.78;6.97;;;7.60;99.90;;;;;;5078626;28;20199;-45
2024/02/28 04:44:26;;;;;;;7.93;6.53;;;7.60;99.90;;;;;;5084356;28;20577;-44
2024/02/28 04:46:58;;;;;;;9.25;7.13;;;7.60;99.90;;;;;;5075073;28;20240;-44
2024/02/28 04:49:26;;;;;;;8.10;6.20;;;7.60;99.90;;;;;;5082344;28;20306;-45
2024/02/28 04:51:56;;;;;;;7.78;6.97;;;7.60;99.90;;;;;;5082191;28;20203;-49
2024/02/28 04:54:24;;;;;;;7.85;6.90;;;7.60;99.90;;;;;;5080702;28;20215;-45
2024/02/28 04:56:53;;;;;;;9.60;7.57;;;7.60;99.90;;;;;;5081751;28;20226;-45
2024/02/28 04:59:24;;;;;;;9.50;7.60;;;7.60;99.90;;;;;;5070931;28;20220;-45
2024/02/28 05:01:53;;;;;;;8.15;6.57;;;7.50;99.90;;;;;;5080612;28;20204;-46
2024/02/28 05:04:26;;;;;;;9.63;7.68;;;7.50;99.90;;;;;;5079660;28;20225;-44
2024/02/28 05:06:55;;;;;;;8.40;6.55;;;7.50;99.90;;;;;;5082561;28;20205;-46
2024/02/28 05:09:26;;;;;;;8.63;6.57;;;7.50;99.90;;;;;;5083573;28;20263;-45
2024/02/28 05:11:56;;;;;;;10.82;8.55;;;7.50;99.90;;;;;;5082932;28;20697;-46
2024/02/28 05:14:26;;;;;;;12.45;9.45;;;7.50;99.90;;;;;;5074440;28;20264;-45
2024/02/28 05:16:56;;;;;;;10.20;7.60;;;7.50;99.90;;;;;;5077961;28;20535;-45
2024/02/28 05:19:28;;;;;;;11.43;7.45;;;7.50;99.90;;;;;;5078943;28;20555;-47
2024/02/28 05:21:56;;;;;;;11.05;7.70;;;7.50;99.90;;;;;;5078058;28;20199;-45
2024/02/28 05:24:26;;;;;;;12.05;8.68;;;7.50;99.90;;;;;;5083219;28;20307;-44
2024/02/28 05:26:54;;;;;;;9.18;7.43;;;7.50;99.90;;;;;;5075963;28;20745;-45
2024/02/28 05:29:26;;;;;;;12.18;7.63;;;7.50;99.90;;;;;;5082059;28;20215;-45
2024/02/28 05:31:57;;;;;;;10.23;7.30;;;7.50;99.90;;;;;;5079557;28;20199;-45
2024/02/28 05:34:28;;;;;;;12.40;9.57;;;7.50;99.90;;;;;;5075687;28;20238;-45
2024/02/28 05:36:55;;;;;;;15.68;10.10;;;7.50;99.90;;;;;;5079649;28;20192;-46
2024/02/28 05:39:24;;;;;;;12.65;9.82;;;7.50;99.90;;;;;;5081324;28;20245;-46
2024/02/28 05:41:56;;;;;;;12.52;8.18;;;7.50;99.90;;;;;;5080415;28;20299;-47
2024/02/28 05:44:25;;;;;;;10.75;7.75;;;7.40;99.90;;;;;;5078796;28;20279;-45
2024/02/28 05:46:56;;;;;;;12.55;9.20;;;7.50;99.90;;;;;;5080795;28;20205;-45
2024/02/28 05:49:28;;;;;;;10.30;7.70;;;7.40;99.90;;;;;;5075889;28;20238;-46
2024/02/28 05:51:56;;;;;;;12.30;9.18;;;7.40;99.90;;;;;;5082467;28;20202;-46
2024/02/28 05:54:25;;;;;;;10.35;7.38;;;7.50;99.90;;;;;;5080361;28;20219;-45
2024/02/28 05:56:56;;;;;;;9.80;7.53;;;7.40;99.90;;;;;;5078746;28;20672;-45
2024/02/28 05:59:27;;;;;;;11.40;7.50;;;7.40;99.90;;;;;;5082887;28;20228;-46
2024/02/28 06:01:56;;;;;;;10.55;6.88;;;7.40;99.90;;;;;;5076876;28;20290;-47
2024/02/28 06:04:25;;;;;;;9.65;7.40;;;7.40;99.90;;;;;;5075115;28;20631;-48
2024/02/28 06:06:58;;;;;;;11.15;9.20;;;7.40;99.90;;;;;;5079498;28;20272;-46
2024/02/28 06:09:27;;;;;;;8.55;6.53;;;7.40;99.90;;;;;;5079887;28;20203;-47
2024/02/28 06:11:55;;;;;;;9.20;7.57;;;7.40;99.90;;;;;;5081713;28;20194;-45
2024/02/28 06:14:27;;;;;;;9.23;7.07;;;7.40;99.90;;;;;;5075057;28;20226;-45
2024/02/28 06:16:56;;;;;;;14.10;9.93;;;7.40;99.90;;;;;;5080831;28;20556;-47
2024/02/28 06:19:26;;;;;;;12.48;8.95;;;7.40;99.90;;;;;;5076371;28;20212;-48
2024/02/28 06:21:54;;;;;;;11.88;9.23;;;7.40;99.90;;;;;;5075356;28;20189;-47
2024/02/28 06:24:27;;;;;;;11.98;8.20;;;7.40;99.90;;;;;;5079827;28;20238;-46
2024/02/28 06:26:56;;;;;;;13.60;8.75;;;7.30;99.90;;;;;;5079990;28;20222;-46
2024/02/28 06:29:26;;;;;;;11.38;7.95;;;7.30;99.90;;;;;;5074103;28;20224;-47
2024/02/28 06:31:56;;;;;;;11.57;8.90;;;7.30;99.90;;;;;;5080283;28;20688;-45
2024/02/28 06:34:26;;;;;;;11.10;8.38;;;7.30;99.90;;;;;;5074561;28;20258;-45
2024/02/28 06:36:55;;;;;;;11.43;8.15;;;7.30;99.90;;;;;;5079878;28;20177;-45
2024/02/28 06:39:24;;;;;;;11.48;8.07;;;7.30;99.90;;;;;;5082093;28;20211;-46
2024/02/28 06:41:53;;;;;;;9.07;6.72;;;7.30;99.90;;;;;;5073000;28;20205;-44
2024/02/28 06:44:24;;;;;;;11.73;8.48;;;7.30;99.90;;;;;;5080831;28;20276;-48
2024/02/28 06:46:56;;;;;;;14.38;8.75;;;7.30;99.90;;;;;;5082256;28;20235;-45
2024/02/28 06:49:25;;;;;;;11.98;8.35;;;7.30;99.90;;;;;;5081593;28;20241;-45
2024/02/28 06:51:54;;;;;;;10.07;7.10;;;7.30;99.90;;;;;;5082562;28;20767;-46
2024/02/28 06:54:26;;;;;;;10.30;8.38;;;7.30;99.90;;;;;;5084904;28;20219;-44
2024/02/28 06:56:56;;;;;;;10.38;7.50;;;7.30;99.90;;;;;;5083408;28;20333;-46
2024/02/28 06:59:26;;;;;;;10.05;7.50;;;7.30;99.90;;;;;;5075650;28;20212;-44
2024/02/28 07:01:56;;;;;;;9.07;6.60;;;7.30;99.90;;;;;;5079800;28;20214;-45
2024/02/28 07:04:26;;;;;;;10.77;7.25;;;7.30;99.90;;;;;;5080549;28;20600;-45
2024/02/28 07:06:54;;;;;;;10.57;7.28;;;7.30;99.90;;;;;;5081868;28;20197;-45
2024/02/28 07:09:29;;;;;;;14.02;9.80;;;7.30;99.90;;;;;;5085961;28;20304;-45
2024/02/28 07:12:01;;;;;;;10.23;7.32;;;7.30;99.90;;;;;;5079781;28;20600;-46
2024/02/28 07:14:30;;;;;;;8.95;6.90;;;7.30;99.90;;;;;;5080873;28;20452;-46
2024/02/28 07:17:01;;;;;;;12.55;8.05;;;7.30;99.90;;;;;;5080000;28;20264;-45
2024/02/28 07:19:30;;;;;;;9.93;6.60;;;7.30;99.90;;;;;;5063315;28;20216;-45
2024/02/28 07:21:59;;;;;;;8.55;6.50;;;7.30;99.90;;;;;;5083666;28;20196;-45
2024/02/28 07:24:27;;;;;;;11.15;8.45;;;7.30;99.90;;;;;;5081489;28;20223;-45
2024/02/28 07:26:55;;;;;;;9.32;6.75;;;7.30;99.90;;;;;;5085276;28;20221;-44
2024/02/28 07:29:26;;;;;;;10.80;7.13;;;7.30;99.90;;;;;;5080097;28;20219;-45
2024/02/28 07:31:56;;;;;;;9.95;7.38;;;7.30;99.90;;;;;;5083638;28;20196;-46
2024/02/28 07:34:26;;;;;;;8.48;6.50;;;7.30;99.90;;;;;;5073794;28;20218;-46
2024/02/28 07:36:56;;;;;;;8.45;6.18;;;7.30;99.90;;;;;;5082798;28;20658;-45
2024/02/28 07:39:27;;;;;;;6.72;5.97;;;7.30;99.90;;;;;;5084456;28;20212;-46
2024/02/28 07:41:56;;;;;;;9.65;6.85;;;7.30;99.90;;;;;;5075815;28;20199;-45
2024/02/28 07:44:30;;;;;;;10.13;7.20;;;7.30;99.90;;;;;;5080215;28;20256;-46
2024/02/28 07:47:01;;;;;;;9.77;6.45;;;7.30;99.90;;;;;;5083875;28;20199;-44
2024/02/28 07:49:30;;;;;;;9.32;7.22;;;7.30;99.90;;;;;;5078956;28;20260;-46
2024/02/28 07:52:00;;;;;;;8.63;6.32;;;7.30;99.90;;;;;;5080434;28;20202;-44
2024/02/28 07:54:29;;;;;;;8.10;5.97;;;7.30;99.90;;;;;;5083187;28;20226;-46
2024/02/28 07:56:57;;;;;;;7.10;6.32;;;7.30;99.90;;;;;;5075388;28;20563;-45
2024/02/28 07:59:25;;;;;;;10.38;7.10;;;7.30;99.90;;;;;;5075967;28;20676;-45
2024/02/28 08:01:55;;;;;;;10.65;6.90;;;7.30;99.90;;;;;;5079534;28;20234;-46
2024/02/28 08:04:26;;;;;;;8.85;6.35;;;7.30;99.90;;;;;;5073131;28;20212;-46
2024/02/28 08:06:54;;;;;;;10.77;7.35;;;7.30;99.90;;;;;;5080241;28;20189;-46
2024/02/28 08:09:26;;;;;;;6.90;6.00;;;7.30;99.90;;;;;;5073631;28;20229;-46
2024/02/28 08:11:57;;;;;;;9.68;7.18;;;7.30;99.90;;;;;;5073039;28;20196;-45
2024/02/28 08:14:25;;;;;;;7.45;5.82;;;7.30;99.90;;;;;;5078805;28;20681;-47
2024/02/28 08:16:55;;;;;;;8.68;6.78;;;7.30;99.90;;;;;;5079316;28;20199;-46
2024/02/28 08:19:23;;;;;;;8.57;6.90;;;7.30;99.90;;;;;;5075110;28;20212;-46
2024/02/28 08:21:55;;;;;;;10.48;7.13;;;7.30;99.90;;;;;;5075949;28;20201;-46
2024/02/28 08:24:24;;;;;;;8.23;6.25;;;7.30;99.90;;;;;;5082214;28;20820;-46
2024/02/28 08:26:55;;;;;;;8.77;6.93;;;7.30;99.90;;;;;;5079245;28;20246;-45
2024/02/28 08:29:24;;;;;;;7.57;5.68;;;7.30;99.90;;;;;;5083229;28;20298;-46
2024/02/28 08:31:58;;;;;;;7.07;5.85;;;7.30;99.90;;;;;;5082366;28;20238;-46
2024/02/28 08:34:26;;;;;;;7.95;6.32;;;7.30;99.90;;;;;;5077068;28;20226;-45
2024/02/28 08:36:56;;;;;;;10.32;6.63;;;7.30;99.90;;;;;;5077702;28;20621;-47
2024/02/28 08:39:26;;;;;;;8.55;6.05;;;7.30;99.90;;;;;;5081817;28;20317;-47
2024/02/28 08:41:54;;;;;;;7.05;5.60;;;7.30;99.90;;;;;;5073852;28;20653;-45
2024/02/28 08:44:24;;;;;;;9.38;7.00;;;7.30;99.90;;;;;;5081770;28;20216;-46
2024/02/28 08:46:52;;;;;;;6.97;5.80;;;7.40;99.90;;;;;;5080752;28;20253;-45
2024/02/28 08:49:22;;;;;;;7.90;5.47;;;7.40;99.90;;;;;;5067645;28;20249;-46
2024/02/28 08:51:54;;;;;;;8.90;6.32;;;7.40;99.90;;;;;;5078776;28;20274;-46
2024/02/28 08:54:22;;;;;;;8.65;6.70;;;7.40;99.90;;;;;;5082390;28;20268;-46
2024/02/28 08:56:54;;;;;;;8.20;5.97;;;7.40;99.90;;;;;;5075975;28;20234;-47
2024/02/28 08:59:30;;;;;;;7.53;5.95;;;7.40;99.90;;;;;;5077070;28;20222;-47
2024/02/28 09:02:00;;;;;;;8.32;6.53;;;7.40;99.90;;;;;;5075678;28;20208;-46
2024/02/28 09:04:31;;;;;;;8.93;6.38;;;7.40;99.90;;;;;;5077138;28;20593;-47
2024/02/28 09:07:00;;;;;;;9.05;6.53;;;7.40;99.90;;;;;;5072746;28;20638;-46
2024/02/28 09:09:30;;;;;;;8.93;6.43;;;7.40;99.90;;;;;;5079136;28;20627;-46
2024/02/28 09:12:03;;;;;;;7.07;5.53;;;7.50;99.90;;;;;;5076990;28;20208;-45
2024/02/28 09:14:31;;;;;;;8.23;6.00;;;7.50;99.90;;;;;;5081266;28;20239;-45
2024/02/28 09:17:03;;;;;;;7.50;6.32;;;7.50;99.90;;;;;;5080645;28;20197;-46
2024/02/28 09:19:33;;;;;;;8.38;6.05;;;7.50;99.90;;;;;;5075860;28;20218;-45
2024/02/28 09:22:01;;;;;;;8.45;6.05;;;7.50;99.90;;;;;;5080300;28;20200;-44
2024/02/28 09:24:31;;;;;;;9.18;5.88;;;7.50;99.90;;;;;;5081816;28;20228;-46
2024/02/28 09:26:59;;;;;;;8.10;6.38;;;7.50;99.90;;;;;;5075848;28;20234;-46
2024/02/28 09:29:30;;;;;;;8.50;6.03;;;7.50;99.90;;;;;;5076933;28;20274;-46
2024/02/28 09:31:59;;;;;;;8.13;5.80;;;7.50;99.90;;;;;;5073092;28;20555;-45
2024/02/28 09:34:27;;;;;;;7.55;6.03;;;7.50;99.90;;;;;;5079567;28;20231;-48
2024/02/28 09:36:56;;;;;;;7.50;6.13;;;7.50;99.90;;;;;;5077935;28;20259;-45
2024/02/28 09:39:25;;;;;;;8.60;5.50;;;7.50;99.90;;;;;;5081314;28;20713;-44
2024/02/28 09:41:54;;;;;;;7.10;5.75;;;7.50;99.90;;;;;;5079787;28;20288;-47
2024/02/28 09:44:27;;;;;;;8.63;6.22;;;7.50;99.90;;;;;;5076165;28;20251;-47
2024/02/28 09:46:55;;;;;;;10.00;5.65;;;7.50;99.90;;;;;;5079656;28;20247;-44
2024/02/28 09:49:27;;;;;;;8.40;5.68;;;7.50;99.90;;;;;;5075153;28;20557;-46
2024/02/28 09:51:59;;;;;;;7.70;6.00;;;7.50;99.90;;;;;;5079855;28;20229;-46
2024/02/28 09:54:27;;;;;;;7.50;5.22;;;7.50;99.90;;;;;;5079042;28;20221;-46
2024/02/28 09:56:56;;;;;;;8.30;6.57;;;7.50;99.90;;;;;;5072586;28;20199;-46
2024/02/28 09:59:27;;;;;;;7.40;5.70;;;7.50;99.90;;;;;;5076848;28;20404;-45
2024/02/28 10:02:12;;;;;;;7.80;4.85;;;7.50;99.90;;;;;;5079848;28;20293;-46
2024/02/28 10:04:40;;;;;;;8.40;5.90;;;7.50;99.90;;;;;;5073507;28;20215;-48
2024/02/28 10:07:14;;;;;;;7.45;5.57;;;7.50;99.90;;;;;;5078985;28;20398;-45
2024/02/28 10:09:43;;;;;;;7.80;5.55;;;7.50;99.90;;;;;;5070236;28;20263;-48
2024/02/28 10:12:11;;;;;;;9.90;6.78;;;7.50;99.90;;;;;;5076724;28;20753;-46
2024/02/28 10:14:40;;;;;;;7.55;5.40;;;7.50;99.90;;;;;;5077657;28;20223;-46
2024/02/28 10:17:08;;;;;;;7.03;6.15;;;7.50;99.90;;;;;;5077610;28;20211;-46
2024/02/28 10:19:38;;;;;;;9.25;6.18;;;7.50;99.90;;;;;;5075783;28;20218;-45
2024/02/28 10:22:07;;;;;;;9.98;5.95;;;7.50;99.90;;;;;;5076124;28;20649;-47
2024/02/28 10:24:37;;;;;;;9.48;6.32;;;7.50;99.90;;;;;;5083890;28;20650;-46
2024/02/28 10:27:07;;;;;;;7.80;6.13;;;7.50;99.90;;;;;;5080911;28;20238;-46
2024/02/28 10:29:36;;;;;;;8.10;5.65;;;7.50;99.90;;;;;;5078324;28;20212;-44
2024/02/28 10:32:07;;;;;;;6.05;4.80;;;7.50;99.90;;;;;;5084090;28;20274;-47
2024/02/28 10:34:38;;;;;;;9.60;6.75;;;7.50;99.90;;;;;;5069127;28;20222;-45
2024/02/28 10:37:07;;;;;;;8.50;6.15;;;7.50;99.90;;;;;;5084829;28;20199;-46
2024/02/28 10:39:38;;;;;;;8.07;5.30;;;7.50;99.90;;;;;;5081199;28;20716;-46
2024/02/28 10:42:08;;;;;;;7.10;5.38;;;7.50;99.90;;;;;;5080619;28;20214;-47
2024/02/28 10:44:38;;;;;;;8.32;5.70;;;7.50;99.90;;;;;;5076735;28;20708;-46
2024/02/28 10:47:09;;;;;;;7.25;6.00;;;7.50;99.90;;;;;;5082064;28;20196;-44
2024/02/28 10:49:43;;;;;;;9.77;6.57;;;7.50;99.90;;;;;;5073873;28;21199;-46
2024/02/28 10:52:14;;;;;;;7.18;5.80;;;7.50;99.90;;;;;;5081011;28;20664;-45
2024/02/28 10:54:43;;;;;;;7.63;5.88;;;7.50;99.90;;;;;;5080812;28;20604;-45
2024/02/28 10:57:14;;;;;;;10.13;5.97;;;7.50;99.90;;;;;;5085006;28;20202;-44
2024/02/28 10:59:45;;;;;;;7.45;5.68;;;7.50;99.90;;;;;;5055664;28;20227;-45
2024/02/28 11:02:15;;;;;;;11.38;7.43;;;7.50;99.90;;;;;;5077578;28;20555;-45
2024/02/28 11:04:46;;;;;;;7.95;5.53;;;7.50;99.90;;;;;;5080330;28;20262;-45
2024/02/28 11:07:21;;;;;;;9.85;6.30;;;7.50;99.90;;;;;;5084927;28;20232;-45
2024/02/28 11:09:55;;;;;;;10.25;5.78;;;7.50;99.90;;;;;;5075926;28;20655;-44
2024/02/28 11:12:28;;;;;;;8.30;5.85;;;7.50;99.90;;;;;;5059374;28;20191;-46
2024/02/28 11:14:58;;;;;;;8.20;5.78;;;7.50;99.90;;;;;;5081848;28;20233;-44
2024/02/28 11:17:31;;;;;;;8.15;6.28;;;7.50;99.90;;;;;;5085111;28;20196;-45
2024/02/28 11:20:01;;;;;;;7.78;5.45;;;7.50;99.90;;;;;;5074351;28;20262;-45
2024/02/28 11:22:34;;;;;;;7.65;5.50;;;7.50;99.90;;;;;;5063417;28;20565;-47
2024/02/28 11:25:05;;;;;;;7.25;5.95;;;7.50;99.90;;;;;;5079490;28;20644;-44
2024/02/28 11:27:33;;;;;;;6.25;4.95;;;7.50;99.90;;;;;;5082216;28;20203;-45
2024/02/28 11:30:01;;;;;;;7.00;5.05;;;7.50;99.90;;;;;;5079130;28;20242;-44
2024/02/28 11:32:32;;;;;;;6.95;5.22;;;7.50;99.90;;;;;;5077141;28;20188;-44
2024/02/28 11:35:02;;;;;;;8.02;6.30;;;7.50;99.90;;;;;;5074159;28;20296;-44
2024/02/28 11:37:30;;;;;;;6.80;5.40;;;7.50;99.90;;;;;;5083072;28;20741;-46
2024/02/28 11:40:00;;;;;;;10.10;7.40;;;7.50;99.90;;;;;;5080960;28;20488;-45
2024/02/28 11:42:30;;;;;;;12.90;8.23;;;7.50;99.90;;;;;;5076647;28;20546;-44
2024/02/28 11:45:00;;;;;;;9.80;6.75;;;7.50;99.90;;;;;;5077242;28;20708;-46
2024/02/28 11:47:30;;;;;;;10.82;6.55;;;7.50;99.90;;;;;;5082480;28;20208;-47
2024/02/28 11:50:01;;;;;;;8.60;5.65;;;7.50;99.90;;;;;;5068566;28;20212;-44
2024/02/28 11:52:32;;;;;;;10.07;6.57;;;7.50;99.90;;;;;;5077752;28;20589;-45
2024/02/28 11:55:01;;;;;;;9.30;6.50;;;7.50;99.90;;;;;;5076012;28;20644;-45
2024/02/28 11:57:33;;;;;;;9.93;6.68;;;7.50;99.90;;;;;;5071432;28;20201;-46
2024/02/28 12:00:05;;;;;;;11.00;6.32;;;7.50;99.90;;;;;;5079608;28;20215;-47
2024/02/28 12:02:35;;;;;;;9.80;6.78;;;7.50;99.90;;;;;;5074426;28;20196;-45
2024/02/28 12:05:07;;;;;;;9.27;6.47;;;7.50;99.90;;;;;;5073667;28;20237;-46
2024/02/28 12:07:37;;;;;;;9.00;5.85;;;7.50;99.90;;;;;;5079878;28;20283;-47
2024/02/28 12:10:09;;;;;;;10.63;6.72;;;7.50;99.90;;;;;;5079356;28;20224;-47
2024/02/28 12:12:40;;;;;;;8.23;6.55;;;7.50;99.90;;;;;;5076551;28;20674;-47
2024/02/28 12:15:10;;;;;;;12.80;8.05;;;7.50;99.90;;;;;;5081288;28;20226;-47
2024/02/28 12:17:38;;;;;;;11.52;7.93;;;7.50;99.90;;;;;;5080584;28;20282;-45
2024/02/28 12:20:08;;;;;;;8.80;6.25;;;7.50;99.90;;;;;;5073964;28;20232;-46
2024/02/28 12:22:38;;;;;;;9.60;6.55;;;7.50;99.90;;;;;;5076113;28;20216;-45
2024/02/28 12:25:08;;;;;;;10.70;7.35;;;7.50;99.90;;;;;;5079139;28;20718;-46
2024/02/28 12:27:38;;;;;;;8.38;6.43;;;7.50;99.90;;;;;;5073407;28;20199;-46
2024/02/28 12:30:08;;;;;;;8.77;6.20;;;7.50;99.90;;;;;;5072108;28;20584;-46
2024/02/28 12:32:39;;;;;;;8.38;6.13;;;7.50;99.90;;;;;;5075738;28;20681;-47
2024/02/28 12:35:08;;;;;;;11.63;6.90;;;7.50;99.90;;;;;;5074242;28;20310;-46
2024/02/28 12:37:38;;;;;;;9.05;6.28;;;7.50;99.90;;;;;;5078738;28;20184;-46
2024/02/28 12:40:08;;;;;;;8.15;5.80;;;7.50;99.90;;;;;;5081095;28;20648;-46
2024/02/28 12:42:39;;;;;;;8.88;6.22;;;7.50;99.90;;;;;;5077071;28;20199;-45
2024/02/28 12:45:11;;;;;;;7.78;5.32;;;7.50;99.90;;;;;;5075566;28;20713;-47
2024/02/28 12:47:40;;;;;;;8.65;5.57;;;7.50;99.90;;;;;;5074509;28;20657;-46
2024/02/28 12:50:10;;;;;;;6.97;5.30;;;7.50;99.90;;;;;;5072893;28;20260;-46
2024/02/28 12:52:41;;;;;;;9.10;6.10;;;7.50;99.90;;;;;;5069123;28;20254;-48
2024/02/28 12:55:11;;;;;;;8.68;5.60;;;7.50;99.90;;;;;;5080314;28;20243;-45
2024/02/28 12:57:41;;;;;;;7.32;5.22;;;7.50;99.90;;;;;;5080151;28;20594;-46
2024/02/28 13:00:13;;;;;;;6.00;4.80;;;7.50;99.90;;;;;;5079603;28;20223;-44
2024/02/28 13:02:41;;;;;;;10.70;7.45;;;7.50;99.90;;;;;;5073250;28;20225;-45
2024/02/28 13:05:12;;;;;;;9.67;7.17;;;7.50;99.90;;;;;;5073856;28;20454;-46